createdAt,value
2019-01-12T00:02:47.598Z,95.30
2019-01-12T00:04:03.997Z,95.40
2019-01-12T00:05:24.049Z,95.50
2019-01-12T00:06:40.558Z,95.70
2019-01-12T00:07:56.971Z,95.80
2019-01-12T00:09:13.616Z,96.00
2019-01-12T00:10:31.021Z,95.90
2019-01-12T00:11:47.411Z,96.00
2019-01-12T00:13:03.717Z,95.90
2019-01-12T00:14:20.121Z,95.80
2019-01-12T00:15:36.593Z,95.80
2019-01-12T00:16:53.745Z,95.90
2019-01-12T00:18:10.225Z,96.00
2019-01-12T00:19:26.568Z,96.10
2019-01-12T00:20:43.029Z,96.10
2019-01-12T00:21:59.677Z,96.00
2019-01-12T00:23:16.393Z,96.00
2019-01-12T00:24:33.495Z,96.00
2019-01-12T00:25:50.697Z,96.00
2019-01-12T00:27:07.757Z,95.90
2019-01-12T00:28:24.298Z,95.90
2019-01-12T00:29:41.505Z,95.90
2019-01-12T00:30:57.922Z,95.90
2019-01-12T00:32:14.855Z,96.00
2019-01-12T00:33:31.196Z,95.90
2019-01-12T00:34:48.317Z,96.00
2019-01-12T00:36:04.626Z,96.00
2019-01-12T00:37:21.705Z,96.00
2019-01-12T00:38:38.101Z,95.90
2019-01-12T00:39:54.565Z,96.10
2019-01-12T00:41:11.044Z,96.00
2019-01-12T00:42:27.534Z,96.30
2019-01-12T00:43:43.880Z,96.30
2019-01-12T00:45:00.404Z,96.40
2019-01-12T00:46:16.781Z,96.40
2019-01-12T00:47:33.513Z,96.50
2019-01-12T00:48:50.305Z,96.40
2019-01-12T00:50:07.474Z,96.40
2019-01-12T00:51:24.602Z,96.40
2019-01-12T00:52:41.284Z,96.30
2019-01-12T00:53:58.217Z,96.30
2019-01-12T00:55:14.839Z,96.20
2019-01-12T00:56:31.528Z,96.20
2019-01-12T00:57:47.940Z,96.10
2019-01-12T00:59:04.922Z,96.00
2019-01-12T01:00:21.838Z,96.00
2019-01-12T01:01:38.304Z,96.00
2019-01-12T01:02:54.773Z,95.90
2019-01-12T01:04:11.363Z,95.80
2019-01-12T01:05:28.000Z,95.80
2019-01-12T01:06:44.839Z,95.90
2019-01-12T01:08:01.799Z,95.70
2019-01-12T01:09:18.235Z,95.80
2019-01-12T01:10:35.155Z,95.80
2019-01-12T01:11:51.626Z,95.70
2019-01-12T01:13:08.956Z,95.80
2019-01-12T01:14:25.502Z,95.80
2019-01-12T01:15:41.865Z,95.90
2019-01-12T01:16:58.491Z,95.90
2019-01-12T01:18:15.221Z,95.80
2019-01-12T01:19:31.838Z,95.80
2019-01-12T01:20:48.259Z,95.80
2019-01-12T01:22:05.009Z,95.80
2019-01-12T01:23:21.533Z,95.80
2019-01-12T01:24:38.000Z,95.80
2019-01-12T01:25:54.889Z,95.70
2019-01-12T01:27:11.885Z,95.70
2019-01-12T01:28:28.207Z,95.60
2019-01-12T01:29:45.259Z,95.50
2019-01-12T01:31:01.975Z,95.50
2019-01-12T01:32:18.477Z,95.50
2019-01-12T01:33:35.185Z,95.40
2019-01-12T01:34:51.673Z,95.60
2019-01-12T01:36:08.817Z,95.50
2019-01-12T01:37:26.042Z,95.60
2019-01-12T01:38:42.330Z,95.70
2019-01-12T01:39:58.565Z,95.70
2019-01-12T01:41:15.016Z,95.70
2019-01-12T01:42:31.531Z,95.80
2019-01-12T01:43:48.029Z,95.80
2019-01-12T01:45:04.892Z,95.90
2019-01-12T01:46:21.298Z,95.90
2019-01-12T01:47:37.821Z,95.90
2019-01-12T01:48:54.416Z,95.90
2019-01-12T01:50:11.230Z,96.00
2019-01-12T01:51:28.188Z,96.00
2019-01-12T01:52:44.590Z,96.00
2019-01-12T01:53:59.711Z,96.00
2019-01-12T01:55:23.780Z,96.00
2019-01-12T01:56:40.204Z,96.00
2019-01-12T01:57:56.861Z,96.00
2019-01-12T01:59:13.092Z,96.00
2019-01-12T02:00:29.508Z,95.90
2019-01-12T02:01:46.395Z,95.90
2019-01-12T02:03:02.889Z,95.80
2019-01-12T02:04:19.524Z,95.80
2019-01-12T02:05:35.917Z,95.80
2019-01-12T02:06:53.013Z,95.80
2019-01-12T02:08:10.097Z,95.70
2019-01-12T02:09:26.638Z,95.70
2019-01-12T02:10:43.202Z,95.60
2019-01-12T02:11:59.721Z,95.70
2019-01-12T02:13:16.580Z,95.70
2019-01-12T02:14:34.001Z,95.80
2019-01-12T02:15:51.188Z,95.80
2019-01-12T02:17:07.876Z,95.80
2019-01-12T02:18:24.933Z,95.90
2019-01-12T02:19:41.857Z,96.00
2019-01-12T02:20:58.268Z,95.80
2019-01-12T02:22:14.888Z,95.80
2019-01-12T02:23:31.881Z,95.90
2019-01-12T02:24:48.373Z,95.80
2019-01-12T02:26:04.800Z,95.80
2019-01-12T02:27:21.272Z,95.80
2019-01-12T02:28:38.269Z,95.70
2019-01-12T02:29:54.656Z,95.80
2019-01-12T02:31:11.046Z,95.70
2019-01-12T02:32:27.610Z,95.60
2019-01-12T02:33:44.154Z,95.60
2019-01-12T02:35:01.297Z,95.50
2019-01-12T02:36:18.035Z,95.40
2019-01-12T02:37:34.674Z,95.40
2019-01-12T02:38:51.337Z,95.40
2019-01-12T02:40:07.924Z,95.50
2019-01-12T02:41:24.563Z,95.50
2019-01-12T02:42:41.005Z,95.40
2019-01-12T02:43:58.382Z,95.50
2019-01-12T02:45:15.934Z,95.40
2019-01-12T02:46:32.301Z,95.40
2019-01-12T02:47:49.134Z,95.30
2019-01-12T02:49:05.579Z,95.40
2019-01-12T02:50:22.060Z,95.40
2019-01-12T02:51:38.371Z,95.20
2019-01-12T02:52:54.716Z,95.30
2019-01-12T02:54:11.389Z,95.30
2019-01-12T02:55:27.748Z,95.20
2019-01-12T02:56:44.150Z,95.20
2019-01-12T02:58:00.542Z,95.30
2019-01-12T02:59:17.640Z,95.30
2019-01-12T03:00:34.272Z,95.30
2019-01-12T03:01:51.291Z,95.30
2019-01-12T03:03:07.988Z,95.30
2019-01-12T03:04:24.526Z,95.40
2019-01-12T03:05:41.266Z,95.40
2019-01-12T03:06:58.388Z,95.30
2019-01-12T03:08:14.885Z,95.30
2019-01-12T03:09:31.641Z,95.30
2019-01-12T03:10:48.371Z,95.30
2019-01-12T03:12:05.170Z,95.40
2019-01-12T03:13:22.246Z,95.40
2019-01-12T03:14:38.818Z,95.60
2019-01-12T03:15:55.994Z,95.60
2019-01-12T03:17:11.151Z,95.70
2019-01-12T03:18:35.268Z,95.70
2019-01-12T03:19:51.718Z,95.80
2019-01-12T03:21:08.144Z,95.80
2019-01-12T03:22:25.085Z,95.80
2019-01-12T03:23:41.355Z,95.80
2019-01-12T03:24:57.840Z,95.80
2019-01-12T03:26:14.364Z,95.80
2019-01-12T03:27:31.185Z,95.70
2019-01-12T03:28:47.602Z,95.70
2019-01-12T03:30:04.279Z,95.70
2019-01-12T03:31:20.875Z,95.80
2019-01-12T03:32:37.370Z,95.80
2019-01-12T03:33:53.906Z,95.70
2019-01-12T03:35:11.000Z,95.60
2019-01-12T03:36:27.587Z,95.60
2019-01-12T03:37:44.485Z,95.60
2019-01-12T03:39:01.102Z,95.70
2019-01-12T03:40:18.740Z,95.60
2019-01-12T03:41:35.545Z,95.60
2019-01-12T03:42:51.904Z,95.60
2019-01-12T03:44:08.977Z,95.60
2019-01-12T03:45:25.485Z,95.60
2019-01-12T03:46:41.849Z,95.60
2019-01-12T03:47:58.284Z,95.60
2019-01-12T03:49:14.840Z,95.60
2019-01-12T03:50:31.332Z,95.50
2019-01-12T03:51:48.075Z,95.60
2019-01-12T03:53:04.487Z,95.60
2019-01-12T03:54:21.030Z,95.60
2019-01-12T03:55:41.149Z,95.60
2019-01-12T03:56:58.373Z,95.60
2019-01-12T03:58:14.850Z,95.70
2019-01-12T03:59:31.274Z,95.80
2019-01-12T04:00:48.202Z,95.80
2019-01-12T04:02:04.653Z,95.90
2019-01-12T04:03:21.037Z,96.00
2019-01-12T04:04:38.011Z,96.00
2019-01-12T04:05:54.832Z,96.10
2019-01-12T04:07:11.598Z,96.00
2019-01-12T04:08:27.862Z,96.00
2019-01-12T04:09:44.347Z,95.90
2019-01-12T04:11:01.020Z,95.80
2019-01-12T04:12:17.636Z,95.90
2019-01-12T04:13:34.473Z,96.00
2019-01-12T04:14:50.916Z,96.00
2019-01-12T04:16:07.172Z,95.90
2019-01-12T04:17:23.753Z,96.00
2019-01-12T04:18:40.098Z,96.00
2019-01-12T04:19:57.347Z,96.00
2019-01-12T04:21:14.520Z,96.00
2019-01-12T04:22:30.862Z,96.00
2019-01-12T04:23:47.253Z,96.20
2019-01-12T04:25:03.612Z,96.10
2019-01-12T04:26:20.550Z,96.10
2019-01-12T04:27:37.003Z,96.10
2019-01-12T04:28:54.361Z,96.10
2019-01-12T04:30:11.031Z,96.00
2019-01-12T04:31:28.169Z,96.00
2019-01-12T04:32:44.844Z,96.10
2019-01-12T04:34:02.693Z,96.20
2019-01-12T04:35:19.444Z,96.20
2019-01-12T04:36:35.929Z,96.20
2019-01-12T04:37:52.418Z,96.30
2019-01-12T04:39:09.288Z,96.40
2019-01-12T04:40:26.193Z,96.40
2019-01-12T04:41:42.447Z,96.40
2019-01-12T04:42:57.640Z,96.40
2019-01-12T04:44:21.744Z,96.40
2019-01-12T04:45:38.970Z,96.40
2019-01-12T04:46:55.405Z,96.50
2019-01-12T04:48:12.001Z,96.60
2019-01-12T04:49:29.057Z,96.50
2019-01-12T04:50:45.968Z,96.60
2019-01-12T04:52:02.484Z,96.80
2019-01-12T04:53:18.935Z,96.80
2019-01-12T04:54:36.104Z,97.00
2019-01-12T04:55:52.836Z,97.00
2019-01-12T04:57:09.589Z,97.10
2019-01-12T04:58:26.275Z,97.20
2019-01-12T04:59:42.820Z,97.30
2019-01-12T05:00:59.842Z,97.40
2019-01-12T05:02:16.405Z,97.40
2019-01-12T05:03:32.915Z,97.40
2019-01-12T05:04:49.583Z,97.30
2019-01-12T05:06:05.942Z,97.20
2019-01-12T05:07:22.425Z,97.30
2019-01-12T05:08:38.913Z,97.30
2019-01-12T05:09:55.482Z,97.30
2019-01-12T05:11:11.880Z,97.40
2019-01-12T05:12:28.465Z,97.40
2019-01-12T05:13:45.006Z,97.40
2019-01-12T05:15:01.473Z,97.50
2019-01-12T05:16:18.202Z,97.30
2019-01-12T05:17:34.460Z,97.30
2019-01-12T05:18:50.886Z,97.40
2019-01-12T05:20:07.581Z,97.50
2019-01-12T05:21:24.168Z,97.40
2019-01-12T05:22:40.751Z,97.40
2019-01-12T05:23:57.815Z,97.40
2019-01-12T05:25:14.199Z,97.40
2019-01-12T05:26:30.666Z,97.50
2019-01-12T05:27:47.028Z,97.40
2019-01-12T05:29:03.934Z,97.30
2019-01-12T05:30:20.597Z,97.30
2019-01-12T05:31:37.075Z,97.40
2019-01-12T05:32:53.719Z,97.50
2019-01-12T05:34:10.177Z,97.50
2019-01-12T05:35:26.617Z,97.50
2019-01-12T05:36:43.277Z,97.40
2019-01-12T05:37:59.794Z,97.40
2019-01-12T05:39:16.425Z,97.40
2019-01-12T05:40:32.702Z,97.40
2019-01-12T05:41:49.493Z,97.40
2019-01-12T05:43:06.057Z,97.40
2019-01-12T05:44:22.969Z,97.30
2019-01-12T05:45:39.482Z,97.20
2019-01-12T05:46:55.985Z,97.20
2019-01-12T05:48:12.562Z,97.10
2019-01-12T05:49:28.977Z,97.10
2019-01-12T05:50:48.074Z,97.00
2019-01-12T05:52:05.286Z,97.20
2019-01-12T05:53:21.901Z,97.10
2019-01-12T05:54:38.456Z,97.10
2019-01-12T05:55:58.084Z,97.10
2019-01-12T05:57:13.915Z,97.20
2019-01-12T05:58:30.237Z,97.20
2019-01-12T05:59:46.830Z,97.10
2019-01-12T06:01:03.400Z,97.30
2019-01-12T06:02:20.160Z,97.10
2019-01-12T06:03:36.501Z,97.20
2019-01-12T06:04:53.454Z,97.10
2019-01-12T06:06:09.934Z,97.10
2019-01-12T06:07:26.684Z,97.00
2019-01-12T06:08:43.324Z,97.10
2019-01-12T06:10:00.433Z,97.00
2019-01-12T06:11:17.092Z,97.00
2019-01-12T06:12:34.053Z,97.00
2019-01-12T06:13:50.601Z,97.00
2019-01-12T06:15:07.196Z,96.90
2019-01-12T06:16:24.318Z,96.80
2019-01-12T06:17:41.500Z,96.80
2019-01-12T06:18:58.223Z,96.90
2019-01-12T06:20:14.768Z,96.80
2019-01-12T06:21:31.932Z,96.70
2019-01-12T06:22:48.384Z,96.70
2019-01-12T06:24:04.809Z,96.60
2019-01-12T06:25:21.071Z,96.60
2019-01-12T06:26:37.655Z,96.60
2019-01-12T06:27:54.025Z,96.50
2019-01-12T06:29:09.233Z,96.50
2019-01-12T06:30:33.391Z,96.50
2019-01-12T06:31:49.958Z,96.50
2019-01-12T06:33:06.917Z,96.50
2019-01-12T06:34:23.229Z,96.50
2019-01-12T06:35:40.217Z,96.40
2019-01-12T06:36:56.741Z,96.40
2019-01-12T06:38:13.645Z,96.30
2019-01-12T06:39:30.089Z,96.40
2019-01-12T06:40:46.709Z,96.40
2019-01-12T06:42:03.231Z,96.60
2019-01-12T06:43:20.120Z,96.50
2019-01-12T06:44:36.657Z,96.70
2019-01-12T06:45:53.548Z,96.60
2019-01-12T06:47:09.969Z,96.50
2019-01-12T06:48:27.155Z,96.60
2019-01-12T06:49:44.341Z,96.50
2019-01-12T06:51:00.840Z,96.50
2019-01-12T06:52:17.553Z,96.40
2019-01-12T06:53:34.165Z,96.50
2019-01-12T06:54:50.656Z,96.50
2019-01-12T06:56:10.954Z,96.40
2019-01-12T06:57:26.166Z,96.30
2019-01-12T06:58:42.548Z,96.20
2019-01-12T06:59:58.928Z,96.20
2019-01-12T07:01:15.650Z,96.10
2019-01-12T07:02:32.666Z,96.10
2019-01-12T07:03:49.118Z,96.00
2019-01-12T07:05:05.435Z,96.10
2019-01-12T07:06:22.042Z,95.90
2019-01-12T07:07:38.474Z,95.90
2019-01-12T07:08:55.124Z,95.80
2019-01-12T07:10:12.173Z,95.80
2019-01-12T07:11:29.393Z,96.00
2019-01-12T07:12:45.986Z,95.70
2019-01-12T07:14:02.730Z,95.70
2019-01-12T07:15:19.362Z,95.70
2019-01-12T07:16:35.991Z,95.70
2019-01-12T07:17:52.597Z,95.70
2019-01-12T07:19:09.293Z,95.70
2019-01-12T07:20:26.161Z,95.70
2019-01-12T07:21:42.722Z,95.70
2019-01-12T07:22:59.949Z,95.60
2019-01-12T07:24:18.102Z,95.70
2019-01-12T07:25:35.012Z,95.70
2019-01-12T07:26:51.473Z,95.70
2019-01-12T07:28:08.504Z,95.60
2019-01-12T07:29:24.926Z,95.80
2019-01-12T07:30:41.297Z,95.70
2019-01-12T07:31:58.114Z,95.70
2019-01-12T07:33:14.784Z,95.80
2019-01-12T07:34:31.441Z,95.70
2019-01-12T07:35:48.591Z,95.60
2019-01-12T07:37:05.245Z,95.70
2019-01-12T07:38:22.548Z,95.70
2019-01-12T07:39:39.501Z,95.70
2019-01-12T07:40:55.904Z,95.70
2019-01-12T07:42:12.353Z,95.70
2019-01-12T07:43:29.465Z,95.60
2019-01-12T07:44:45.946Z,95.60
2019-01-12T07:46:02.567Z,95.70
2019-01-12T07:47:22.895Z,95.70
2019-01-12T07:48:39.221Z,95.80
2019-01-12T07:49:55.668Z,95.70
2019-01-12T07:51:12.317Z,95.80
2019-01-12T07:52:29.297Z,95.70
2019-01-12T07:53:45.814Z,95.60
2019-01-12T07:55:02.166Z,95.60
2019-01-12T07:56:24.485Z,95.50
2019-01-12T07:57:38.057Z,95.50
2019-01-12T07:58:54.324Z,95.50
2019-01-12T08:00:10.738Z,95.50
2019-01-12T08:01:27.710Z,95.50
2019-01-12T08:02:44.521Z,95.40
2019-01-12T08:04:00.893Z,95.20
2019-01-12T08:05:17.466Z,95.00
2019-01-12T08:06:33.993Z,95.00
2019-01-12T08:07:50.652Z,95.00
2019-01-12T08:09:06.973Z,95.10
2019-01-12T08:10:23.984Z,95.10
2019-01-12T08:11:41.217Z,95.00
2019-01-12T08:12:57.825Z,94.90
2019-01-12T08:14:14.256Z,94.80
2019-01-12T08:15:31.121Z,94.80
2019-01-12T08:16:47.389Z,94.90
2019-01-12T08:18:04.048Z,94.70
2019-01-12T08:19:20.609Z,94.70
2019-01-12T08:20:37.117Z,94.70
2019-01-12T08:21:53.811Z,94.70
2019-01-12T08:23:10.181Z,94.70
2019-01-12T08:24:27.060Z,94.70
2019-01-12T08:25:42.240Z,94.60
2019-01-12T08:26:58.724Z,94.60
2019-01-12T08:28:15.144Z,94.70
2019-01-12T08:29:31.638Z,94.60
2019-01-12T08:30:47.956Z,94.60
2019-01-12T08:32:04.452Z,94.60
2019-01-12T08:33:21.516Z,94.50
2019-01-12T08:34:38.021Z,94.50
2019-01-12T08:35:54.537Z,94.50
2019-01-12T08:37:11.333Z,94.50
2019-01-12T08:38:27.789Z,94.30
2019-01-12T08:39:44.353Z,94.50
2019-01-12T08:41:00.822Z,94.50
2019-01-12T08:42:17.721Z,94.40
2019-01-12T08:43:34.804Z,94.40
2019-01-12T08:44:51.228Z,94.50
2019-01-12T08:46:08.004Z,94.30
2019-01-12T08:47:13.158Z,94.30
2019-01-12T08:48:18.256Z,94.40
2019-01-12T08:49:23.387Z,94.30
2019-01-12T08:50:28.529Z,94.40
2019-01-12T08:51:33.734Z,94.40
2019-01-12T08:52:38.832Z,94.40
2019-01-12T08:53:43.909Z,94.40
2019-01-12T08:54:49.000Z,94.50
2019-01-12T08:55:54.058Z,94.50
2019-01-12T08:56:59.128Z,94.40
2019-01-12T08:58:04.282Z,94.40
2019-01-12T08:59:09.437Z,94.30
2019-01-12T09:00:17.032Z,94.30
2019-01-12T09:01:23.154Z,94.20
2019-01-12T09:02:28.285Z,94.00
2019-01-12T09:03:33.456Z,94.10
2019-01-12T09:04:43.443Z,94.10
2019-01-12T09:05:45.390Z,94.00
2019-01-12T09:06:51.601Z,94.00
2019-01-12T09:07:56.728Z,94.00
2019-01-12T09:09:01.870Z,93.90
2019-01-12T09:10:11.497Z,93.90
2019-01-12T09:11:16.644Z,93.80
2019-01-12T09:12:21.762Z,93.70
2019-01-12T09:13:26.857Z,93.70
2019-01-12T09:14:32.037Z,93.70
2019-01-12T09:15:37.183Z,93.60
2019-01-12T09:16:42.287Z,93.70
2019-01-12T09:17:47.420Z,93.60
2019-01-12T09:18:52.547Z,93.50
2019-01-12T09:19:57.723Z,93.70
2019-01-12T09:21:02.885Z,93.70
2019-01-12T09:22:08.066Z,93.80
2019-01-12T09:23:13.169Z,93.90
2019-01-12T09:24:18.305Z,93.80
2019-01-12T09:25:23.485Z,93.90
2019-01-12T09:26:28.685Z,93.90
2019-01-12T09:27:33.828Z,94.00
2019-01-12T09:28:38.954Z,94.10
2019-01-12T09:29:44.072Z,94.00
2019-01-12T09:30:49.253Z,93.90
2019-01-12T09:31:54.465Z,93.90
2019-01-12T09:32:59.681Z,93.90
2019-01-12T09:34:04.710Z,93.90
2019-01-12T09:35:09.914Z,93.90
2019-01-12T09:36:15.032Z,93.90
2019-01-12T09:37:20.147Z,93.80
2019-01-12T09:38:25.272Z,94.00
2019-01-12T09:39:30.430Z,93.70
2019-01-12T09:40:35.625Z,93.70
2019-01-12T09:41:40.870Z,93.60
2019-01-12T09:42:46.238Z,93.60
2019-01-12T09:43:51.353Z,93.60
2019-01-12T09:44:56.469Z,93.60
2019-01-12T09:46:01.606Z,93.60
2019-01-12T09:47:06.736Z,93.50
2019-01-12T09:48:12.951Z,93.50
2019-01-12T09:49:18.082Z,93.40
2019-01-12T09:50:23.143Z,93.30
2019-01-12T09:51:28.265Z,93.30
2019-01-12T09:52:33.361Z,93.40
2019-01-12T09:53:38.489Z,93.40
2019-01-12T09:54:43.537Z,93.30
2019-01-12T09:55:48.657Z,93.20
2019-01-12T09:56:53.785Z,93.20
2019-01-12T09:57:58.910Z,93.10
2019-01-12T09:59:03.974Z,93.00
2019-01-12T10:00:15.756Z,93.10
2019-01-12T10:01:20.990Z,93.10
2019-01-12T10:02:26.176Z,93.10
2019-01-12T10:03:31.354Z,93.10
2019-01-12T10:04:36.480Z,93.10
2019-01-12T10:05:41.605Z,92.90
2019-01-12T10:06:46.833Z,92.90
2019-01-12T10:07:52.031Z,92.70
2019-01-12T10:08:57.162Z,92.70
2019-01-12T10:10:02.262Z,92.60
2019-01-12T10:11:07.429Z,92.60
2019-01-12T10:12:12.494Z,92.50
2019-01-12T10:13:17.688Z,92.50
2019-01-12T10:14:22.781Z,92.40
2019-01-12T10:15:27.906Z,92.40
2019-01-12T10:16:33.039Z,92.40
2019-01-12T10:17:38.152Z,92.30
2019-01-12T10:18:43.341Z,92.40
2019-01-12T10:19:48.480Z,92.40
2019-01-12T10:20:53.644Z,92.40
2019-01-12T10:21:58.775Z,92.40
2019-01-12T10:23:03.926Z,92.40
2019-01-12T10:24:09.099Z,92.40
2019-01-12T10:25:14.720Z,92.50
2019-01-12T10:26:19.851Z,92.40
2019-01-12T10:27:25.024Z,92.40
2019-01-12T10:28:30.177Z,92.40
2019-01-12T10:29:35.272Z,92.30
2019-01-12T10:30:40.330Z,92.10
2019-01-12T10:31:45.439Z,92.00
2019-01-12T10:32:50.529Z,91.90
2019-01-12T10:33:55.770Z,91.90
2019-01-12T10:35:00.801Z,91.80
2019-01-12T10:36:06.815Z,91.80
2019-01-12T10:37:11.916Z,91.70
2019-01-12T10:38:17.056Z,91.50
2019-01-12T10:39:22.125Z,91.50
2019-01-12T10:40:27.345Z,91.40
2019-01-12T10:41:32.416Z,91.50
2019-01-12T10:42:37.440Z,91.40
2019-01-12T10:43:42.576Z,91.50
2019-01-12T10:44:47.739Z,91.40
2019-01-12T10:45:52.814Z,91.40
2019-01-12T10:46:57.968Z,91.30
2019-01-12T10:48:03.089Z,91.20
2019-01-12T10:49:08.116Z,91.10
2019-01-12T10:50:16.853Z,91.20
2019-01-12T10:51:21.905Z,91.30
2019-01-12T10:52:27.005Z,91.40
2019-01-12T10:53:32.030Z,91.30
2019-01-12T10:54:37.123Z,91.40
2019-01-12T10:55:42.195Z,91.30
2019-01-12T10:56:47.361Z,91.10
2019-01-12T10:57:52.484Z,91.10
2019-01-12T10:58:58.903Z,91.10
2019-01-12T11:00:05.813Z,91.20
2019-01-12T11:01:11.929Z,91.30
2019-01-12T11:02:17.038Z,91.30
2019-01-12T11:03:22.160Z,91.50
2019-01-12T11:04:27.174Z,91.70
2019-01-12T11:05:32.726Z,91.60
2019-01-12T11:06:37.761Z,91.60
2019-01-12T11:07:42.878Z,91.30
2019-01-12T11:08:48.117Z,91.20
2019-01-12T11:09:53.612Z,91.20
2019-01-12T11:10:58.749Z,91.10
2019-01-12T11:12:03.956Z,91.20
2019-01-12T11:13:09.106Z,90.90
2019-01-12T11:14:14.269Z,90.90
2019-01-12T11:15:20.323Z,90.90
2019-01-12T11:16:25.436Z,91.00
2019-01-12T11:17:30.528Z,90.90
2019-01-12T11:18:35.689Z,90.90
2019-01-12T11:19:40.811Z,90.90
2019-01-12T11:20:45.953Z,90.70
2019-01-12T11:21:51.094Z,90.60
2019-01-12T11:22:56.157Z,90.60
2019-01-12T11:24:01.320Z,90.80
2019-01-12T11:25:07.773Z,90.80
2019-01-12T11:26:12.869Z,90.70
2019-01-12T11:27:17.991Z,90.60
2019-01-12T11:28:23.428Z,90.60
2019-01-12T11:29:28.596Z,90.60
2019-01-12T11:30:33.725Z,90.60
2019-01-12T11:31:38.904Z,90.70
2019-01-12T11:32:44.050Z,90.70
2019-01-12T11:33:49.181Z,90.60
2019-01-12T11:34:54.311Z,90.60
2019-01-12T11:35:59.399Z,90.70
2019-01-12T11:37:04.508Z,90.70
2019-01-12T11:38:09.659Z,90.60
2019-01-12T11:39:14.697Z,90.60
2019-01-12T11:40:20.996Z,90.60
2019-01-12T11:41:26.085Z,90.50
2019-01-12T11:42:31.122Z,90.50
2019-01-12T11:43:36.222Z,90.50
2019-01-12T11:44:41.329Z,90.50
2019-01-12T11:45:46.513Z,90.50
2019-01-12T11:46:51.614Z,90.50
2019-01-12T11:47:56.754Z,90.50
2019-01-12T11:49:01.887Z,90.50
2019-01-12T11:50:09.472Z,90.40
2019-01-12T11:51:14.908Z,90.40
2019-01-12T11:52:20.122Z,90.40
2019-01-12T11:53:25.247Z,90.50
2019-01-12T11:54:30.354Z,90.40
2019-01-12T11:55:35.447Z,90.40
2019-01-12T11:56:40.582Z,90.40
2019-01-12T11:57:45.973Z,90.40
2019-01-12T11:58:51.094Z,90.40
2019-01-12T11:59:56.210Z,90.30
2019-01-12T12:01:01.262Z,90.10
2019-01-12T12:02:06.460Z,90.00
2019-01-12T12:03:11.522Z,90.00
2019-01-12T12:04:16.656Z,89.90
2019-01-12T12:05:21.920Z,89.80
2019-01-12T12:06:28.193Z,89.60
2019-01-12T12:07:33.296Z,89.50
2019-01-12T12:08:38.446Z,89.70
2019-01-12T12:09:43.587Z,89.70
2019-01-12T12:10:48.742Z,89.70
2019-01-12T12:11:53.755Z,89.70
2019-01-12T12:12:58.825Z,89.50
2019-01-12T12:14:04.145Z,89.30
2019-01-12T12:15:10.846Z,89.10
2019-01-12T12:16:15.944Z,89.00
2019-01-12T12:17:21.070Z,89.00
2019-01-12T12:18:26.275Z,89.00
2019-01-12T12:19:31.406Z,89.00
2019-01-12T12:20:36.530Z,89.20
2019-01-12T12:21:41.676Z,89.00
2019-01-12T12:22:46.899Z,89.20
2019-01-12T12:23:52.037Z,89.50
2019-01-12T12:24:57.089Z,89.30
2019-01-12T12:26:02.221Z,89.60
2019-01-12T12:27:07.321Z,89.70
2019-01-12T12:28:12.469Z,89.80
2019-01-12T12:29:17.627Z,89.60
2019-01-12T12:30:28.052Z,89.60
2019-01-12T12:31:33.162Z,89.50
2019-01-12T12:32:38.344Z,89.50
2019-01-12T12:33:43.761Z,89.80
2019-01-12T12:34:48.862Z,89.90
2019-01-12T12:35:53.906Z,89.60
2019-01-12T12:36:59.008Z,89.70
2019-01-12T12:38:04.528Z,89.90
2019-01-12T12:39:09.647Z,90.10
2019-01-12T12:40:16.582Z,90.30
2019-01-12T12:41:21.733Z,90.30
2019-01-12T12:42:27.971Z,90.20
2019-01-12T12:43:33.104Z,90.30
2019-01-12T12:44:38.205Z,90.40
2019-01-12T12:45:43.372Z,90.50
2019-01-12T12:46:48.501Z,90.60
2019-01-12T12:47:53.657Z,90.60
2019-01-12T12:48:58.840Z,90.60
2019-01-12T12:50:04.556Z,90.60
2019-01-12T12:51:09.577Z,90.70
2019-01-12T12:52:14.689Z,90.60
2019-01-12T12:53:19.955Z,90.50
2019-01-12T12:54:25.006Z,90.50
2019-01-12T12:55:30.113Z,90.50
2019-01-12T12:56:35.271Z,90.50
2019-01-12T12:57:40.368Z,90.50
2019-01-12T12:58:45.481Z,90.60
2019-01-12T12:59:50.563Z,90.60
2019-01-12T13:00:55.744Z,90.50
2019-01-12T13:02:00.899Z,90.50
2019-01-12T13:03:06.027Z,90.50
2019-01-12T13:04:11.430Z,90.60
2019-01-12T13:05:16.552Z,90.60
2019-01-12T13:06:21.580Z,90.50
2019-01-12T13:07:26.752Z,90.60
2019-01-12T13:08:31.858Z,90.60
2019-01-12T13:09:36.971Z,90.40
2019-01-12T13:10:42.104Z,90.40
2019-01-12T13:11:47.237Z,90.40
2019-01-12T13:12:52.350Z,90.40
2019-01-12T13:13:57.487Z,90.50
2019-01-12T13:15:02.585Z,90.70
2019-01-12T13:16:07.933Z,90.90
2019-01-12T13:17:13.048Z,90.90
2019-01-12T13:18:18.212Z,91.10
2019-01-12T13:19:23.256Z,91.20
2019-01-12T13:20:28.411Z,91.30
2019-01-12T13:21:33.586Z,91.40
2019-01-12T13:22:38.678Z,91.60
2019-01-12T13:23:43.720Z,91.60
2019-01-12T13:24:48.734Z,91.70
2019-01-12T13:25:53.825Z,91.80
2019-01-12T13:26:58.931Z,91.60
2019-01-12T13:28:04.397Z,91.60
2019-01-12T13:29:09.573Z,91.70
2019-01-12T13:30:20.293Z,91.80
2019-01-12T13:31:26.696Z,91.70
2019-01-12T13:32:31.900Z,91.90
2019-01-12T13:33:37.017Z,92.20
2019-01-12T13:34:42.169Z,92.10
2019-01-12T13:35:47.214Z,92.20
2019-01-12T13:36:52.325Z,92.20
2019-01-12T13:37:57.523Z,92.30
2019-01-12T13:39:02.832Z,92.20
2019-01-12T13:40:10.449Z,92.30
2019-01-12T13:41:15.577Z,92.40
2019-01-12T13:42:20.742Z,92.70
2019-01-12T13:43:25.885Z,92.60
2019-01-12T13:44:31.009Z,92.60
2019-01-12T13:45:36.092Z,92.70
2019-01-12T13:46:41.245Z,92.70
2019-01-12T13:47:46.333Z,92.80
2019-01-12T13:48:51.598Z,92.80
2019-01-12T13:49:56.721Z,92.80
2019-01-12T13:51:01.978Z,92.90
2019-01-12T13:52:08.660Z,92.90
2019-01-12T13:53:13.717Z,92.90
2019-01-12T13:54:18.859Z,92.90
2019-01-12T13:55:23.963Z,92.90
2019-01-12T13:56:29.122Z,92.80
2019-01-12T13:57:34.201Z,92.90
2019-01-12T13:58:39.305Z,92.80
2019-01-12T13:59:44.443Z,92.80
2019-01-12T14:00:49.550Z,92.60
2019-01-12T14:01:54.698Z,92.60
2019-01-12T14:03:01.477Z,92.60
2019-01-12T14:04:06.990Z,92.60
2019-01-12T14:05:12.121Z,92.50
2019-01-12T14:06:17.222Z,92.20
2019-01-12T14:07:22.486Z,92.00
2019-01-12T14:08:27.622Z,92.20
2019-01-12T14:09:32.782Z,92.10
2019-01-12T14:10:38.167Z,92.20
2019-01-12T14:11:43.363Z,92.20
2019-01-12T14:12:48.750Z,92.00
2019-01-12T14:13:53.986Z,92.00
2019-01-12T14:14:59.134Z,92.00
2019-01-12T14:16:04.465Z,91.90
2019-01-12T14:17:09.637Z,91.80
2019-01-12T14:18:14.899Z,91.90
2019-01-12T14:19:20.008Z,91.90
2019-01-12T14:20:30.757Z,91.90
2019-01-12T14:21:35.958Z,92.00
2019-01-12T14:22:41.138Z,92.00
2019-01-12T14:23:46.196Z,91.90
2019-01-12T14:24:51.324Z,91.60
2019-01-12T14:25:56.495Z,91.50
2019-01-12T14:27:01.593Z,91.50
2019-01-12T14:28:06.816Z,91.60
2019-01-12T14:29:11.973Z,91.60
2019-01-12T14:30:18.449Z,91.60
2019-01-12T14:31:24.480Z,91.70
2019-01-12T14:32:30.108Z,91.70
2019-01-12T14:33:35.362Z,91.60
2019-01-12T14:34:40.588Z,91.40
2019-01-12T14:35:45.661Z,91.40
2019-01-12T14:36:50.741Z,91.40
2019-01-12T14:37:55.796Z,91.50
2019-01-12T14:39:00.965Z,91.40
2019-01-12T14:40:10.397Z,91.40
2019-01-12T14:41:15.506Z,91.50
2019-01-12T14:42:20.523Z,91.40
2019-01-12T14:43:26.150Z,91.40
2019-01-12T14:44:31.252Z,91.40
2019-01-12T14:45:36.471Z,91.40
2019-01-12T14:46:41.557Z,91.40
2019-01-12T14:47:46.816Z,91.40
2019-01-12T14:48:52.013Z,91.40
2019-01-12T14:49:57.132Z,91.40
2019-01-12T14:51:02.745Z,91.30
2019-01-12T14:52:07.829Z,91.30
2019-01-12T14:53:12.928Z,91.40
2019-01-12T14:54:19.007Z,91.50
2019-01-12T14:55:28.127Z,91.50
2019-01-12T14:56:34.048Z,91.40
2019-01-12T14:57:40.243Z,91.50
2019-01-12T14:58:45.971Z,91.40
2019-01-12T14:59:52.081Z,91.30
2019-01-12T15:00:58.523Z,91.40
2019-01-12T15:02:06.196Z,91.50
2019-01-12T15:03:12.620Z,91.40
2019-01-12T15:04:18.579Z,91.40
2019-01-12T15:05:28.662Z,91.30
2019-01-12T15:06:34.605Z,91.40
2019-01-12T15:07:40.857Z,91.40
2019-01-12T15:08:47.486Z,91.40
2019-01-12T15:09:53.269Z,91.50
2019-01-12T15:11:01.959Z,91.50
2019-01-12T15:12:08.184Z,91.50
2019-01-12T15:13:14.231Z,91.60
2019-01-12T15:14:19.470Z,91.60
2019-01-12T15:15:25.789Z,91.50
2019-01-12T15:16:31.696Z,91.60
2019-01-12T15:17:37.577Z,91.60
2019-01-12T15:18:43.638Z,91.60
2019-01-12T15:19:50.347Z,91.60
2019-01-12T15:20:55.683Z,91.60
2019-01-12T15:22:00.823Z,91.40